Route Details

Aircraft Information
Group: Large Widebodies
Types: B744, MD11
Route Data
Distance: 3848nm
Duration: 8h 34m
Origin METAR: KMIA 181653Z 26004KT 10SM SCT042 SCT250 34/21 A2997 RMK AO2 SLP148 T03440206 $
Dest. METAR: SAEZ 181700Z 23012G22KT 200V260 9999 FEW047 12/M00 Q1023 NOSIG RMK PP000
Freight Data
(for Aug 18, 2022)
Load Factor:
26%
Manifested Cargo: 54,997lbs
Financial History
Total Freight: 584,776lbs
Average Load: 0lbs/flt
Fuel Used: 433,770lbs
Avg. Fuel Used: 0lbs/flt
Fuel Expense: $360,851
Avg. Fuel Expense: $0
Avg. Fuel Cost: $0/lbs
Total Gross Income: $1,780,541
Pilot Pay: $776
Total Expenses: $317,661
Total Revenue: $1,092,801
Average Revenue: $0

Capitol Logistics 795




KMIA
Miami International Airport
Miami, Florida
SAEZ
Aeropuerto Internacional Ezeiza/Ministro Pistarini
Buenos Aires,